Terminal Aerodrome Forecast
Issued by NWS Cleveland, OH

Home | Current Version | Previous Version | Graphics & Text | Print | Product List | Glossary On
Versions: 1 2 3 4 5 6 7 8 9 10 11 12 13 14 15 16 17 18 19 20 21 22 23 24 25
828
FTUS41 KCLE 181325 AAA
TAFYNG
TAF AMD
KYNG 181325Z 1813/1912 18010KT 3SM -SHRA BR OVC015 WS020/20045KT
      TEMPO 1813/1815 2SM -SHRA OVC003
     FM181500 20015G30KT 3SM SHRA VCTS OVC015CB WS020/22045KT
     FM181900 20015G35KT P6SM OVC010
     FM190000 25015G35KT 2SM TSRA OVC003CB
      TEMPO 1901/1902 VRB30G45KT 1SM +TSRA OVC003CB
     FM190300 27020G35KT 3SM -SHRA BR OVC007
     FM190800 30020G40KT 3SM -SHRA BR OVC015=

USA.gov is the U.S. government's official web portal to all federal, state and local government web resources and services.